Time;durP1;ratioP1;P1;durP2;ratioP2;P2;SDS_P1;SDS_P2;PMS_P1;PMS_P2;Temp;Humidity;BMP_temperature;BMP_pressure;BME280_temperature;BME280_humidity;BME280_pressure;Samples;Min_cycle;Max_cycle;Signal;HPM_P1;HPM_P2
2022/04/11 00:02:10;;;;;;;6.20;4.43;;;;;;;;;;5077377;28;20450;-92
2022/04/11 00:04:37;;;;;;;7.30;4.80;;;;;;;;;;5071936;28;20454;-91
2022/04/11 00:07:05;;;;;;;5.83;4.47;;;;;;;;;;5077894;28;20457;-92
2022/04/11 00:09:32;;;;;;;4.97;4.07;;;;;;;;;;5074627;28;20986;-93
2022/04/11 00:11:59;;;;;;;8.03;5.33;;;;;;;;;;5078063;28;20952;-93
2022/04/11 00:14:26;;;;;;;5.90;3.93;;;;;;;;;;5077924;28;20530;-92
2022/04/11 00:16:55;;;;;;;3.93;3.63;;;;;;;;;;5073895;28;20453;-91
2022/04/11 00:19:22;;;;;;;5.13;4.60;;;;;;;;;;5074692;28;20430;-93
2022/04/11 00:21:49;;;;;;;6.57;4.73;;;;;;;;;;5077676;28;20442;-93
2022/04/11 00:24:16;;;;;;;6.30;4.80;;;;;;;;;;5074554;28;20477;-93
2022/04/11 00:26:43;;;;;;;5.77;4.40;;;;;;;;;;5077575;28;20913;-93
2022/04/11 00:29:11;;;;;;;4.33;3.90;;;;;;;;;;5077598;28;20436;-92
2022/04/11 00:31:38;;;;;;;5.13;4.70;;;;;;;;;;5077318;28;20434;-92
2022/04/11 00:34:06;;;;;;;6.73;5.00;;;;;;;;;;5073893;28;20429;-94
2022/04/11 00:36:33;;;;;;;5.67;4.63;;;;;;;;;;5077186;28;20450;-93
2022/04/11 00:39:01;;;;;;;7.40;4.60;;;;;;;;;;5077053;28;20514;-92
2022/04/11 00:41:28;;;;;;;7.83;3.90;;;;;;;;;;5070786;28;20449;-94
2022/04/11 00:43:55;;;;;;;6.93;4.63;;;;;;;;;;5073627;28;20897;-92
2022/04/11 00:46:22;;;;;;;5.80;5.20;;;;;;;;;;5076445;28;20426;-92
2022/04/11 00:48:49;;;;;;;5.37;4.50;;;;;;;;;;5073913;28;20464;-92
2022/04/11 00:51:21;;;;;;;5.20;4.70;;;0.60;99.90;;;;;;5077782;28;20468;-93
2022/04/11 00:53:49;;;;;;;5.63;5.13;;;;;;;;;;5072155;28;20433;-93
2022/04/11 00:56:17;;;;;;;6.13;4.70;;;;;;;;;;5077658;28;20453;-94
2022/04/11 00:58:44;;;;;;;5.43;4.73;;;;;;;;;;5074297;28;20478;-92
2022/04/11 01:01:12;;;;;;;6.83;4.80;;;;;;;;;;5073926;28;20493;-92
2022/04/11 01:03:39;;;;;;;5.50;4.10;;;;;;;;;;5077417;28;20456;-91
2022/04/11 01:06:07;;;;;;;6.17;4.13;;;;;;;;;;5076905;28;20438;-92
2022/04/11 01:08:35;;;;;;;6.17;5.10;;;;;;;;;;5077066;28;21093;-91
2022/04/11 01:11:04;;;;;;;6.70;5.53;;;;;;;;;;5073909;28;20460;-92
2022/04/11 01:13:31;;;;;;;6.23;5.33;;;;;;;;;;5074142;28;20450;-91
2022/04/11 01:15:59;;;;;;;5.60;4.70;;;;;;;;;;5073884;28;20480;-92
2022/04/11 01:18:26;;;;;;;6.70;5.13;;;;;;;;;;5066481;28;20485;-93
2022/04/11 01:20:54;;;;;;;11.57;5.43;;;0.40;99.90;;;;;;5073533;28;20933;-92
2022/04/11 01:23:23;;;;;;;7.10;4.80;;;;;;;;;;5071331;28;20465;-93
2022/04/11 01:25:51;;;;;;;5.87;4.30;;;;;;;;;;5076822;28;20452;-93
2022/04/11 01:28:19;;;;;;;9.13;5.50;;;;;;;;;;5076919;28;20473;-94
2022/04/11 01:30:47;;;;;;;6.00;4.70;;;;;;;;;;5073664;28;20491;-92
2022/04/11 01:33:20;;;;;;;8.07;5.43;;;0.40;99.90;;;;;;5072867;28;20468;-93
2022/04/11 01:35:47;;;;;;;5.47;4.97;;;;;;;;;;5073546;28;20450;-93
2022/04/11 01:38:14;;;;;;;8.70;5.23;;;;;;;;;;5076294;28;20481;-94
2022/04/11 01:40:50;;;;;;;7.57;5.40;;;;;;;;;;5076558;28;20947;-94
2022/04/11 01:43:17;;;;;;;8.73;5.40;;;;;;;;;;5075573;28;20472;-93
2022/04/11 01:45:45;;;;;;;6.10;5.30;;;;;;;;;;5075943;28;20521;-93
2022/04/11 01:48:12;;;;;;;6.77;4.80;;;;;;;;;;5072978;28;20449;-94
2022/04/11 01:50:40;;;;;;;6.53;5.30;;;;;;;;;;5073175;28;20446;-92
2022/04/11 01:53:08;;;;;;;6.30;5.20;;;;;;;;;;5073133;28;20504;-93
2022/04/11 01:55:35;;;;;;;7.97;5.67;;;;;;;;;;5075981;28;20549;-95
2022/04/11 01:58:04;;;;;;;5.40;4.90;;;;;;;;;;5075823;28;20485;-93
2022/04/11 02:00:31;;;;;;;8.23;5.77;;;;;;;;;;5076504;28;20460;-94
2022/04/11 02:02:59;;;;;;;8.07;5.73;;;;;;;;;;5075598;28;20442;-93
2022/04/11 02:05:26;;;;;;;6.63;5.27;;;;;;;;;;5073178;28;20454;-94
2022/04/11 02:07:54;;;;;;;7.47;5.80;;;;;;;;;;5076135;28;20430;-94
2022/04/11 02:10:21;;;;;;;11.13;6.97;;;0.40;99.90;;;;;;5075788;28;20917;-92
2022/04/11 02:12:49;;;;;;;6.07;5.47;;;;;;;;;;5071611;28;20464;-93
2022/04/11 02:15:18;;;;;;;6.10;5.30;;;0.50;99.90;;;;;;5072541;28;20518;-93
2022/04/11 02:17:46;;;;;;;7.10;5.77;;;;;;;;;;5067793;28;20434;-95
2022/04/11 02:20:14;;;;;;;8.60;5.80;;;;;;;;;;5072657;28;20434;-93
2022/04/11 02:22:44;;;;;;;7.83;6.10;;;;;;;;;;5075686;28;20795;-93
2022/04/11 02:25:11;;;;;;;7.33;5.97;;;;;;;;;;5072739;28;20480;-93
2022/04/11 02:27:39;;;;;;;6.47;5.57;;;;;;;;;;5076219;28;20460;-92
2022/04/11 02:30:07;;;;;;;8.27;6.63;;;;;;;;;;5073974;28;20462;-92
2022/04/11 02:32:37;;;;;;;7.30;5.63;;;;;;;;;;5073351;28;20454;-94
2022/04/11 02:35:05;;;;;;;6.10;5.50;;;0.70;99.90;;;;;;5076947;28;20442;-93
2022/04/11 02:37:33;;;;;;;7.17;5.37;;;;;;;;;;5072786;28;20590;-92
2022/04/11 02:40:00;;;;;;;7.27;6.57;;;;;;;;;;5072936;28;20510;-91
2022/04/11 02:42:29;;;;;;;8.70;6.33;;;0.70;99.90;;;;;;5069501;28;20580;-93
2022/04/11 02:44:57;;;;;;;7.67;6.27;;;0.70;99.90;;;;;;5074327;28;20454;-93
2022/04/11 02:47:24;;;;;;;10.27;6.37;;;;;;;;;;5083198;28;20450;-93
2022/04/11 02:49:53;;;;;;;8.37;6.47;;;;;;;;;;5094788;28;20521;-93
2022/04/11 02:52:21;;;;;;;7.20;6.03;;;;;;;;;;5084717;28;20454;-94
2022/04/11 02:54:49;;;;;;;6.70;6.00;;;;;;;;;;5075731;28;20442;-93
2022/04/11 02:57:16;;;;;;;12.93;6.60;;;;;;;;;;5075766;28;20454;-94
2022/04/11 02:59:44;;;;;;;6.40;5.80;;;;;;;;;;5075085;28;20492;-92
2022/04/11 03:02:11;;;;;;;7.47;6.30;;;;;;;;;;5072315;28;20453;-92
2022/04/11 03:04:38;;;;;;;8.27;6.20;;;;;;;;;;5076151;28;20449;-93
2022/04/11 03:07:07;;;;;;;7.97;6.50;;;;;;;;;;5075581;28;20449;-95
2022/04/11 03:09:34;;;;;;;9.70;6.60;;;;;;;;;;5076527;28;20447;-94
2022/04/11 03:12:02;;;;;;;11.07;7.57;;;;;;;;;;5075923;28;20945;-93
2022/04/11 03:14:29;;;;;;;8.37;7.00;;;;;;;;;;5079645;28;20454;-93
2022/04/11 03:16:57;;;;;;;7.17;6.47;;;;;;;;;;5079138;28;20456;-93
2022/04/11 03:19:24;;;;;;;7.37;5.97;;;;;;;;;;5079054;28;20491;-94
2022/04/11 03:21:51;;;;;;;8.90;6.90;;;;;;;;;;5079296;28;20454;-94
2022/04/11 03:24:19;;;;;;;8.57;6.50;;;;;;;;;;5075133;28;20473;-94
2022/04/11 03:26:47;;;;;;;12.27;6.70;;;;;;;;;;5078793;28;20491;-94
2022/04/11 03:29:14;;;;;;;11.10;6.23;;;;;;;;;;5078465;28;20942;-93
2022/04/11 03:31:42;;;;;;;10.10;6.40;;;;;;;;;;5075654;28;20449;-92
2022/04/11 03:34:09;;;;;;;8.93;6.30;;;;;;;;;;5079414;28;20482;-94
2022/04/11 03:36:36;;;;;;;9.37;7.37;;;;;;;;;;5078891;28;20430;-95
2022/04/11 03:39:04;;;;;;;7.87;6.80;;;;;;;;;;5074816;28;20478;-93
2022/04/11 03:41:34;;;;;;;8.70;7.70;;;;;;;;;;5075292;28;20791;-93
2022/04/11 03:44:01;;;;;;;10.83;8.00;;;;;;;;;;5078818;28;20452;-93
2022/04/11 03:46:28;;;;;;;8.70;6.77;;;;;;;;;;5078524;28;20446;-92
2022/04/11 03:48:58;;;;;;;7.90;6.80;;;;;;;;;;5079206;28;20518;-95
2022/04/11 03:51:25;;;;;;;11.10;7.70;;;;;;;;;;5079223;28;20468;-92
2022/04/11 03:53:53;;;;;;;8.87;7.70;;;;;;;;;;5075763;28;20446;-93
2022/04/11 03:56:20;;;;;;;10.10;6.50;;;;;;;;;;5079707;28;20454;-94
2022/04/11 03:58:49;;;;;;;8.23;6.63;;;;;;;;;;5079954;28;20484;-93
2022/04/11 04:01:16;;;;;;;9.40;6.73;;;;;;;;;;5078500;28;20453;-93
2022/04/11 04:03:44;;;;;;;7.10;6.30;;;;;;;;;;5079020;28;20459;-92
2022/04/11 04:06:13;;;;;;;15.17;12.10;;;;;;;;;;5078944;28;20446;-94
2022/04/11 04:08:40;;;;;;;14.73;12.80;;;;;;;;;;5078906;28;20464;-94
2022/04/11 04:11:08;;;;;;;12.00;10.73;;;;;;;;;;5075742;28;20433;-93
2022/04/11 04:13:35;;;;;;;14.03;11.77;;;;;;;;;;5075672;28;20449;-92
2022/04/11 04:16:04;;;;;;;13.40;10.73;;;;;;;;;;5075392;28;20960;-93
2022/04/11 04:18:32;;;;;;;11.57;9.70;;;;;;;;;;5078313;28;20481;-94
2022/04/11 04:20:59;;;;;;;11.90;10.47;;;;;;;;;;5077913;28;20488;-93
2022/04/11 04:23:26;;;;;;;12.07;9.07;;;;;;;;;;5079103;28;20469;-93
2022/04/11 04:25:53;;;;;;;10.17;8.23;;;;;;;;;;5082630;28;20442;-90
2022/04/11 04:28:21;;;;;;;13.73;11.53;;;;;;;;;;5096433;28;20525;-93
2022/04/11 04:30:48;;;;;;;15.90;11.10;;;;;;;;;;5094648;28;20457;-93
2022/04/11 04:33:17;;;;;;;11.03;9.07;;;;;;;;;;5094836;28;20445;-93
2022/04/11 04:35:44;;;;;;;12.57;10.73;;;;;;;;;;5094679;28;20462;-94
2022/04/11 04:38:11;;;;;;;11.83;8.93;;;;;;;;;;5090367;28;20457;-94
2022/04/11 04:40:38;;;;;;;9.97;8.97;;;;;;;;;;5082936;28;20535;-94
2022/04/11 04:43:07;;;;;;;10.90;9.47;;;;;;;;;;5074907;28;20503;-94
2022/04/11 04:45:34;;;;;;;10.27;8.57;;;;;;;;;;5074015;28;20514;-93
2022/04/11 04:48:01;;;;;;;8.97;7.60;;;;;;;;;;5073906;28;20449;-93
2022/04/11 04:50:30;;;;;;;10.60;7.23;;;;;;;;;;5073517;28;20440;-94
2022/04/11 04:52:57;;;;;;;17.33;7.83;;;;;;;;;;5078219;28;20786;-92
2022/04/11 04:55:25;;;;;;;10.27;7.47;;;;;;;;;;5077740;28;20452;-93
2022/04/11 04:57:52;;;;;;;10.10;7.00;;;;;;;;;;5078267;28;21000;-94
2022/04/11 05:00:19;;;;;;;10.77;7.90;;;;;;;;;;5079602;28;20892;-93
2022/04/11 05:02:46;;;;;;;8.87;6.83;;;;;;;;;;5079758;28;21017;-94
2022/04/11 05:05:14;;;;;;;12.37;7.67;;;;;;;;;;5078302;28;20462;-93
2022/04/11 05:07:44;;;;;;;8.63;7.07;;;;;;;;;;5079651;28;20808;-93
2022/04/11 05:10:11;;;;;;;11.03;7.07;;;;;;;;;;5078726;28;20453;-93
2022/04/11 05:12:43;;;;;;;11.20;6.93;;;;;;;;;;5075418;28;20460;-93
2022/04/11 05:15:11;;;;;;;12.73;7.57;;;;;;;;;;5078411;28;20537;-94
2022/04/11 05:17:39;;;;;;;9.63;7.97;;;;;;;;;;5076946;28;20449;-93
2022/04/11 05:20:08;;;;;;;11.67;8.23;;;0.50;99.90;;;;;;5077622;28;20521;-93
2022/04/11 05:22:35;;;;;;;9.00;7.60;;;;;;;;;;5076990;28;20561;-92
2022/04/11 05:25:04;;;;;;;11.70;6.70;;;;;;;;;;5079029;28;20436;-93
2022/04/11 05:27:31;;;;;;;9.17;7.67;;;;;;;;;;5079320;28;20891;-94
2022/04/11 05:29:59;;;;;;;11.73;7.87;;;;;;;;;;5079576;28;20457;-93
2022/04/11 05:32:26;;;;;;;14.73;10.10;;;;;;;;;;5079421;28;20450;-93
2022/04/11 05:34:53;;;;;;;11.90;9.70;;;;;;;;;;5080584;28;20465;-92
2022/04/11 05:37:20;;;;;;;13.90;9.27;;;;;;;;;;5078308;28;20454;-92
2022/04/11 05:39:48;;;;;;;16.70;8.83;;;;;;;;;;5082149;28;20477;-93
2022/04/11 05:42:16;;;;;;;16.40;9.20;;;;;;;;;;5083894;28;20552;-93
2022/04/11 05:44:43;;;;;;;11.40;7.80;;;;;;;;;;5087581;28;20460;-93
2022/04/11 05:47:12;;;;;;;13.27;7.90;;;;;;;;;;5090093;28;20449;-92
2022/04/11 05:49:40;;;;;;;9.30;6.90;;;;;;;;;;5077385;28;20444;-91
2022/04/11 05:52:08;;;;;;;7.70;6.87;;;3.80;99.90;;;;;;5076004;28;20434;-94
2022/04/11 05:54:38;;;;;;;13.03;7.30;;;4.30;99.90;;;;;;5075209;28;20445;-89
2022/04/11 05:57:05;;;;;;;8.40;6.57;;;4.50;99.90;;;;;;5068066;28;20453;-89
2022/04/11 05:59:40;;;;;;;8.93;6.90;;;4.40;99.90;;;;;;5069785;28;20485;-90
2022/04/11 06:02:09;;;;;;;8.87;7.13;;;;;;;;;;5074753;28;20819;-91
2022/04/11 06:04:37;;;;;;;8.27;7.10;;;;;;;;;;5072038;28;20925;-92
2022/04/11 06:07:04;;;;;;;8.63;7.00;;;;;;;;;;5075040;28;20450;-92
2022/04/11 06:09:31;;;;;;;10.97;7.33;;;;;;;;;;5074753;28;20442;-92
2022/04/11 06:11:58;;;;;;;9.03;6.90;;;;;;;;;;5074582;28;20450;-91
2022/04/11 06:14:26;;;;;;;7.80;7.00;;;;;;;;;;5074805;28;20438;-91
2022/04/11 06:16:54;;;;;;;7.87;6.53;;;6.50;99.90;;;;;;5074103;28;20438;-92
2022/04/11 06:19:21;;;;;;;8.30;6.80;;;;;;;;;;5069450;28;20480;-90
2022/04/11 06:21:50;;;;;;;7.57;6.20;;;;;;;;;;5074918;28;20465;-92
2022/04/11 06:24:17;;;;;;;9.23;6.80;;;;;;;;;;5071954;28;20515;-89
2022/04/11 06:26:44;;;;;;;9.70;6.60;;;;;;;;;;5070708;28;20499;-90
2022/04/11 06:29:11;;;;;;;10.00;6.97;;;;;;;;;;5071845;28;20461;-91
2022/04/11 06:31:38;;;;;;;8.90;7.07;;;;;;;;;;5075313;28;20453;-92
2022/04/11 06:34:07;;;;;;;13.00;7.00;;;8.00;99.90;;;;;;5075701;28;20932;-92
2022/04/11 06:36:34;;;;;;;8.10;6.60;;;;;;;;;;5075307;28;20449;-91
2022/04/11 06:39:01;;;;;;;8.43;6.90;;;;;;;;;;5074113;28;20450;-90
2022/04/11 06:41:28;;;;;;;9.30;7.50;;;;;;;;;;5074116;28;20476;-90
2022/04/11 06:43:55;;;;;;;7.67;6.20;;;;;;;;;;5076202;28;20434;-92
2022/04/11 06:46:23;;;;;;;7.77;6.93;;;;;;;;;;5071986;28;20896;-91
2022/04/11 06:48:50;;;;;;;11.03;7.73;;;;;;;;;;5074652;28;20498;-94
2022/04/11 06:51:19;;;;;;;8.87;6.90;;;7.70;99.90;;;;;;5074314;28;20513;-91
2022/04/11 06:53:46;;;;;;;10.73;7.00;;;;;;;;;;5074228;28;20445;-89
2022/04/11 06:56:13;;;;;;;6.93;5.97;;;;;;;;;;5075418;28;20445;-90
2022/04/11 06:58:40;;;;;;;12.20;7.00;;;;;;;;;;5075291;28;20438;-90
2022/04/11 07:01:08;;;;;;;6.90;6.27;;;;;;;;;;5073607;28;20489;-88
2022/04/11 07:03:35;;;;;;;8.73;5.73;;;;;;;;;;5075087;28;20481;-92
2022/04/11 07:06:02;;;;;;;6.83;5.93;;;;;;;;;;5071561;28;20458;-92
2022/04/11 07:08:30;;;;;;;8.10;6.10;;;10.00;98.40;;;;;;5073618;28;20453;-90
2022/04/11 07:10:58;;;;;;;10.73;6.37;;;9.80;99.30;;;;;;5070880;28;20446;-93
2022/04/11 07:13:25;;;;;;;8.90;6.43;;;;;;;;;;5068914;28;20804;-93
2022/04/11 07:15:52;;;;;;;12.90;5.97;;;;;;;;;;5071285;28;20473;-92
2022/04/11 07:18:20;;;;;;;8.10;6.33;;;;;;;;;;5074258;28;20490;-92
2022/04/11 07:20:47;;;;;;;8.73;6.30;;;;;;;;;;5071254;28;20493;-93
2022/04/11 07:23:14;;;;;;;7.17;6.47;;;;;;;;;;5074981;28;20445;-92
2022/04/11 07:25:42;;;;;;;7.30;6.60;;;10.60;96.00;;;;;;5075504;28;20894;-91
2022/04/11 07:28:10;;;;;;;6.73;6.03;;;;;;;;;;5038896;28;20798;-91
2022/04/11 07:30:41;;;;;;;7.20;5.87;;;9.30;99.90;;;;;;5073934;28;20449;-91
2022/04/11 07:33:09;;;;;;;8.03;5.80;;;10.20;96.70;;;;;;5072992;28;20517;-92
2022/04/11 07:35:37;;;;;;;5.57;5.07;;;10.60;95.20;;;;;;5073913;28;20437;-91
2022/04/11 07:38:04;;;;;;;12.00;5.27;;;;;;;;;;5073997;28;20457;-93
2022/04/11 07:40:32;;;;;;;6.33;5.30;;;;;;;;;;5070443;28;20533;-93
2022/04/11 07:43:00;;;;;;;5.23;4.67;;;11.50;94.40;;;;;;5069649;28;20474;-93
2022/04/11 07:45:27;;;;;;;5.50;4.93;;;;;;;;;;5016102;28;20857;-92
2022/04/11 07:47:54;;;;;;;5.97;4.70;;;;;;;;;;5072973;28;20453;-92
2022/04/11 07:50:21;;;;;;;7.50;5.20;;;;;;;;;;5074613;28;20440;-92
2022/04/11 07:52:48;;;;;;;6.70;5.40;;;;;;;;;;5073656;28;20484;-92
2022/04/11 07:55:16;;;;;;;7.90;5.23;;;;;;;;;;5073795;28;20528;-92
2022/04/11 07:57:43;;;;;;;5.87;4.73;;;;;;;;;;5073372;28;20529;-93
2022/04/11 08:00:13;;;;;;;6.10;4.60;;;12.30;92.40;;;;;;5076930;28;20486;-92
2022/04/11 08:02:40;;;;;;;5.60;4.80;;;;;;;;;;5071517;28;20449;-91
2022/04/11 08:05:08;;;;;;;5.30;4.40;;;12.30;90.80;;;;;;5169821;22;20504;-90
2022/04/11 08:07:35;;;;;;;5.50;5.00;;;;;;;;;;5048765;28;20449;-89
2022/04/11 08:10:02;;;;;;;5.00;4.50;;;;;;;;;;5054871;28;20548;-91
2022/04/11 08:12:30;;;;;;;4.87;4.30;;;;;;;;;;5056746;28;20946;-90
2022/04/11 08:14:57;;;;;;;5.70;4.80;;;;;;;;;;5057113;28;20441;-91
2022/04/11 08:17:25;;;;;;;4.33;3.90;;;13.20;88.90;;;;;;5053031;28;20488;-91
2022/04/11 08:19:55;;;;;;;5.33;4.10;;;;;;;;;;5056425;28;20482;-88
2022/04/11 08:22:22;;;;;;;6.90;3.67;;;;;;;;;;5056494;28;20470;-91
2022/04/11 08:24:49;;;;;;;14.40;4.30;;;;;;;;;;5056113;28;20760;-91
2022/04/11 08:27:16;;;;;;;4.27;3.90;;;;;;;;;;5060428;28;20434;-89
2022/04/11 08:29:43;;;;;;;4.90;3.60;;;;;;;;;;5057977;28;20433;-89
2022/04/11 08:32:12;;;;;;;4.80;3.93;;;;;;;;;;5060712;28;20439;-91
2022/04/11 08:34:41;;;;;;;4.90;4.40;;;13.10;85.90;;;;;;5054388;28;20508;-91
2022/04/11 08:37:08;;;;;;;4.90;3.70;;;;;;;;;;5058314;28;20802;-90
2022/04/11 08:39:35;;;;;;;5.80;4.40;;;;;;;;;;5053060;28;20454;-91
2022/04/11 08:42:02;;;;;;;6.03;4.13;;;;;;;;;;5059251;28;20462;-91
2022/04/11 08:44:30;;;;;;;4.87;4.27;;;;;;;;;;5054752;28;20458;-91
2022/04/11 08:47:02;;;;;;;6.63;4.13;;;13.20;85.20;;;;;;5058718;28;20455;-89
2022/04/11 08:49:30;;;;;;;4.50;3.70;;;13.90;84.90;;;;;;5056040;28;20466;-91
2022/04/11 08:51:59;;;;;;;5.10;4.03;;;13.60;81.20;;;;;;5051075;28;20826;-92
2022/04/11 08:54:27;;;;;;;8.30;3.90;;;;;;;;;;5056256;28;20860;-92
2022/04/11 08:56:54;;;;;;;4.83;4.03;;;;;;;;;;5056095;28;20457;-92
2022/04/11 08:59:21;;;;;;;7.33;4.10;;;;;;;;;;5053378;28;20443;-91
2022/04/11 09:01:48;;;;;;;6.87;5.10;;;;;;;;;;5055259;28;20494;-92
2022/04/11 09:04:15;;;;;;;4.90;4.00;;;;;;;;;;5057050;28;20847;-92
2022/04/11 09:06:42;;;;;;;151.07;74.77;;;;;;;;;;5055908;28;20450;-92
2022/04/11 09:09:12;;;;;;;5.27;4.23;;;;;;;;;;5055728;28;20823;-91
2022/04/11 09:11:39;;;;;;;3.87;3.57;;;;;;;;;;5056452;28;20537;-92
2022/04/11 09:14:08;;;;;;;5.33;4.80;;;15.10;90.60;;;;;;5056212;28;20512;-92
2022/04/11 09:16:44;;;;;;;6.07;4.60;;;15.40;90.50;;;;;;5055818;28;20445;-92
2022/04/11 09:19:19;;;;;;;5.67;4.73;;;15.90;83.50;;;;;;5053213;28;20462;-93
2022/04/11 09:21:47;;;;;;;6.50;4.53;;;;;;;;;;5021412;28;20482;-92
2022/04/11 09:24:17;;;;;;;4.83;4.10;;;15.80;78.90;;;;;;5056440;28;20455;-90
2022/04/11 09:26:44;;;;;;;7.50;4.50;;;;;;;;;;5059027;28;20450;-91
2022/04/11 09:29:12;;;;;;;4.80;4.40;;;;;;;;;;5054587;28;20454;-93
2022/04/11 09:31:39;;;;;;;6.90;4.53;;;;;;;;;;5051265;28;20528;-93
2022/04/11 09:34:17;;;;;;;6.57;4.80;;;15.20;76.60;;;;;;5053060;28;20790;-91
2022/04/11 09:36:46;;;;;;;4.60;3.47;;;15.20;77.90;;;;;;5047857;28;20526;-92
2022/04/11 09:39:13;;;;;;;6.73;3.87;;;;;;;;;;5052493;28;20496;-91
2022/04/11 09:41:45;;;;;;;5.90;3.40;;;;;;;;;;5051821;28;20497;-91
2022/04/11 09:44:25;;;;;;;4.73;3.23;;;15.40;85.40;;;;;;5055133;28;20492;-91
2022/04/11 09:46:54;;;;;;;5.07;3.57;;;15.60;73.20;;;;;;5054200;28;20453;-91
2022/04/11 09:49:21;;;;;;;3.73;2.90;;;;;;;;;;5045068;28;21245;-89
2022/04/11 09:52:09;;;;;;;3.50;2.50;;;15.70;70.20;;;;;;5054760;28;20454;-92
2022/04/11 09:54:37;;;;;;;2.90;2.70;;;15.90;73.20;;;;;;5051871;28;20459;-92
2022/04/11 09:57:06;;;;;;;3.93;2.60;;;15.70;71.50;;;;;;5004075;28;20443;-92
2022/04/11 09:59:34;;;;;;;3.40;3.10;;;15.70;68.70;;;;;;5055007;28;20435;-92
2022/04/11 10:02:01;;;;;;;3.80;2.70;;;;;;;;;;5046180;28;20569;-91
2022/04/11 10:04:29;;;;;;;6.10;3.03;;;16.20;68.00;;;;;;5050875;28;20501;-91
2022/04/11 10:06:56;;;;;;;5.47;3.40;;;16.40;67.70;;;;;;5046342;28;20443;-90
2022/04/11 10:09:24;;;;;;;2.83;2.57;;;;;;;;;;5055342;28;20455;-89
2022/04/11 10:11:52;;;;;;;3.73;3.03;;;16.40;63.30;;;;;;5055488;28;20500;-93
2022/04/11 10:14:26;;;;;;;6.40;3.23;;;16.50;63.50;;;;;;5054738;28;20477;-91
2022/04/11 10:16:55;;;;;;;6.07;2.90;;;16.80;64.80;;;;;;5056666;28;20830;-90
2022/04/11 10:19:28;;;;;;;3.53;2.83;;;17.10;65.00;;;;;;5053202;28;20584;-90
2022/04/11 10:21:57;;;;;;;4.60;2.50;;;17.00;59.70;;;;;;5016371;28;20644;-91
2022/04/11 10:24:33;;;;;;;4.90;2.80;;;17.00;60.60;;;;;;5041294;28;20970;-88
2022/04/11 10:27:15;;;;;;;4.37;2.70;;;16.50;61.60;;;;;;5033790;28;20960;-90
2022/04/11 10:29:44;;;;;;;4.43;2.30;;;16.20;61.50;;;;;;5035034;28;20810;-91
2022/04/11 10:32:13;;;;;;;3.53;2.30;;;16.60;65.40;;;;;;5032861;28;20455;-90
2022/04/11 10:34:52;;;;;;;3.43;2.20;;;16.80;61.50;;;;;;5032174;28;20997;-89
2022/04/11 10:37:21;;;;;;;4.80;3.03;;;17.00;60.60;;;;;;5034366;28;20479;-90
2022/04/11 10:39:50;;;;;;;3.30;2.30;;;16.50;62.20;;;;;;5034147;28;20526;-91
2022/04/11 10:42:20;;;;;;;4.17;2.73;;;16.60;63.90;;;;;;5034193;28;20479;-90
2022/04/11 10:44:50;;;;;;;3.97;2.50;;;16.40;64.70;;;;;;5034578;28;20550;-91
2022/04/11 10:47:31;;;;;;;3.33;2.97;;;17.10;64.80;;;;;;5032951;28;20454;-92
2022/04/11 10:50:27;;;;;;;4.20;2.50;;;17.80;63.50;;;;;;5033622;28;20501;-91
2022/04/11 10:53:22;;;;;;;4.47;2.63;;;17.00;60.10;;;;;;5037434;28;20463;-92
2022/04/11 10:56:05;;;;;;;3.03;2.33;;;17.00;61.80;;;;;;5034426;28;20448;-91
2022/04/11 10:58:56;;;;;;;3.23;2.90;;;17.40;60.10;;;;;;5034476;28;20549;-91
2022/04/11 11:01:59;;;;;;;5.10;3.07;;;17.10;60.80;;;;;;5024513;28;20490;-93
2022/04/11 11:04:30;;;;;;;3.47;2.20;;;17.70;61.00;;;;;;5032275;28;20474;-92
2022/04/11 11:07:26;;;;;;;4.07;2.70;;;17.50;59.10;;;;;;5035714;28;20436;-92
2022/04/11 11:09:58;;;;;;;3.67;3.20;;;17.50;58.60;;;;;;5031410;28;20538;-91
2022/04/11 11:12:25;;;;;;;4.50;2.47;;;;;;;;;;5035078;28;20523;-90
2022/04/11 11:14:53;;;;;;;3.40;2.87;;;;;;;;;;5036417;28;20955;-91
2022/04/11 11:18:01;;;;;;;3.33;2.40;;;17.80;64.10;;;;;;5036713;28;20453;-96
2022/04/11 11:20:34;;;;;;;5.00;2.63;;;;;;;;;;5037532;28;20479;-94
2022/04/11 11:23:17;;;;;;;3.20;2.63;;;;;;;;;;5034653;28;20456;-93
2022/04/11 11:25:45;;;;;;;2.70;2.50;;;;;;;;;;5038948;28;20447;-94
2022/04/11 11:28:13;;;;;;;4.83;2.70;;;;;;;;;;5038971;28;20466;-95
2022/04/11 11:30:40;;;;;;;3.17;2.60;;;;;;;;;;5036048;28;20454;-92
2022/04/11 11:33:14;;;;;;;2.43;2.23;;;17.90;60.30;;;;;;5035688;28;20448;-94
2022/04/11 11:35:46;;;;;;;3.00;2.63;;;;;;;;;;5038045;28;20459;-93
2022/04/11 11:38:13;;;;;;;2.70;2.37;;;;;;;;;;5040101;28;20939;-92
2022/04/11 11:40:44;;;;;;;3.10;2.40;;;18.00;56.70;;;;;;5040391;28;20451;-92
2022/04/11 11:43:13;;;;;;;3.93;2.77;;;18.10;57.20;;;;;;5021413;28;20507;-91
2022/04/11 11:45:41;;;;;;;4.00;2.50;;;;;;;;;;5027877;28;20459;-91
2022/04/11 11:48:23;;;;;;;2.90;2.70;;;18.40;63.30;;;;;;5018421;28;20460;-89
2022/04/11 11:50:55;;;;;;;3.87;2.90;;;;;;;;;;5021282;28;20479;-90
2022/04/11 11:53:22;;;;;;;5.83;3.10;;;;;;;;;;5019750;28;20439;-92
2022/04/11 11:55:57;;;;;;;3.50;3.20;;;18.10;61.10;;;;;;5018108;28;20901;-93
2022/04/11 11:58:34;;;;;;;3.30;3.00;;;18.20;55.70;;;;;;5018869;28;20444;-91
2022/04/11 12:01:02;;;;;;;2.50;2.20;;;;;;;;;;5001903;28;20515;-92
2022/04/11 12:06:15;;;;;;;3.43;2.73;;;;;;;;;;5018429;28;20435;-92
2022/04/11 12:08:54;;;;;;;3.00;2.70;;;16.80;56.50;;;;;;5017789;28;20444;-91
2022/04/11 12:11:22;;;;;;;5.60;2.87;;;;;;;;;;5022497;28;20471;-91
2022/04/11 12:13:49;;;;;;;7.27;3.47;;;;;;;;;;5031139;28;20463;-91
2022/04/11 12:16:17;;;;;;;3.20;2.83;;;;;;;;;;5035707;28;20428;-93
2022/04/11 12:18:52;;;;;;;3.40;2.70;;;;;;;;;;5037261;28;20468;-90
2022/04/11 12:21:20;;;;;;;3.77;3.10;;;;;;;;;;5039401;28;20986;-93
2022/04/11 12:23:48;;;;;;;4.40;2.60;;;17.30;65.40;;;;;;5038881;28;20451;-92
2022/04/11 12:26:25;;;;;;;5.47;2.93;;;;;;;;;;5042244;28;20462;-92
2022/04/11 12:28:53;;;;;;;2.90;2.57;;;;;;;;;;5037681;28;20537;-91
2022/04/11 12:31:21;;;;;;;4.43;3.40;;;;;;;;;;5036360;28;20478;-93
2022/04/11 12:33:52;;;;;;;3.57;3.27;;;17.30;59.30;;;;;;5032780;28;21022;-91
2022/04/11 12:36:22;;;;;;;4.03;2.77;;;15.90;62.60;;;;;;5035239;28;20517;-95
2022/04/11 12:38:51;;;;;;;4.00;2.60;;;16.70;61.00;;;;;;5037216;28;20479;-91
2022/04/11 12:41:25;;;;;;;4.60;2.90;;;;;;;;;;5039124;28;20482;-94
2022/04/11 12:44:10;;;;;;;3.27;2.83;;;18.00;57.20;;;;;;5036948;28;20440;-92
2022/04/11 12:46:38;;;;;;;3.70;2.80;;;18.10;63.50;;;;;;4995820;28;20448;-93
2022/04/11 12:49:07;;;;;;;4.13;2.67;;;;;;;;;;4996797;28;20446;-93
2022/04/11 12:51:35;;;;;;;3.40;3.10;;;;;;;;;;4996809;28;20449;-95
2022/04/11 12:54:04;;;;;;;3.70;3.00;;;16.90;68.50;;;;;;4993249;28;20457;-93
2022/04/11 12:56:45;;;;;;;5.73;3.47;;;18.10;59.90;;;;;;4995613;28;20561;-92
2022/04/11 12:59:13;;;;;;;3.97;3.37;;;;;;;;;;4995806;28;20445;-91
2022/04/11 13:01:56;;;;;;;4.80;3.20;;;19.00;57.00;;;;;;4994766;28;20485;-92
2022/04/11 13:04:25;;;;;;;4.97;2.93;;;18.40;59.00;;;;;;5009614;28;20466;-93
2022/04/11 13:06:53;;;;;;;3.40;3.10;;;19.00;58.80;;;;;;5036904;28;20444;-91
2022/04/11 13:09:20;;;;;;;2.90;2.70;;;19.70;60.90;;;;;;5036333;28;20439;-92
2022/04/11 13:11:49;;;;;;;4.73;2.73;;;19.20;56.90;;;;;;5002506;28;20455;-94
2022/04/11 13:14:16;;;;;;;3.53;2.73;;;;;;;;;;5037060;28;20439;-93
2022/04/11 13:19:29;;;;;;;3.20;2.90;;;19.10;54.40;;;;;;5034830;28;20542;-88
2022/04/11 13:21:56;;;;;;;3.07;2.83;;;;;;;;;;5034626;28;20494;-89
2022/04/11 13:24:23;;;;;;;5.13;3.07;;;;;;;;;;5035595;28;20447;-90
2022/04/11 13:26:50;;;;;;;3.60;3.30;;;;;;;;;;5035039;28;20840;-91
2022/04/11 13:29:18;;;;;;;3.80;3.30;;;;;;;;;;5034964;28;20452;-89
2022/04/11 13:31:45;;;;;;;7.10;3.37;;;;;;;;;;5033613;28;20478;-89
2022/04/11 13:34:12;;;;;;;3.90;3.27;;;;;;;;;;5034268;28;20950;-89
2022/04/11 13:36:40;;;;;;;4.90;3.33;;;19.10;53.90;;;;;;5035430;28;20448;-89
2022/04/11 13:39:07;;;;;;;4.00;3.50;;;;;;;;;;5032573;28;20454;-89
2022/04/11 13:41:35;;;;;;;4.40;4.00;;;18.90;52.30;;;;;;5033346;28;20479;-88
2022/04/11 13:44:02;;;;;;;3.40;3.10;;;;;;;;;;5035833;28;20474;-90
2022/04/11 13:46:30;;;;;;;5.77;3.33;;;;;;;;;;5033356;28;20452;-89
2022/04/11 13:48:57;;;;;;;5.33;3.37;;;19.10;81.20;;;;;;5032540;28;20459;-89
2022/04/11 13:51:24;;;;;;;8.77;3.87;;;19.40;53.80;;;;;;5033739;28;20448;-89
2022/04/11 13:53:55;;;;;;;6.37;3.10;;;19.60;54.20;;;;;;5033360;28;20451;-88
2022/04/11 13:56:23;;;;;;;4.27;3.87;;;;;;;;;;5034249;28;20447;-88
2022/04/11 13:58:50;;;;;;;3.77;3.30;;;;;;;;;;5034164;28;20448;-89
2022/04/11 14:01:17;;;;;;;4.23;3.10;;;;;;;;;;5032596;28;20452;-89
2022/04/11 14:03:44;;;;;;;4.53;3.30;;;19.80;91.80;;;;;;5033841;28;20452;-89
2022/04/11 14:06:11;;;;;;;3.33;3.03;;;;;;;;;;5034131;28;20982;-89
2022/04/11 14:08:39;;;;;;;4.50;3.63;;;;;;;;;;5034172;28;20456;-89
2022/04/11 14:11:07;;;;;;;5.43;3.73;;;19.40;52.00;;;;;;5033849;28;21074;-89
2022/04/11 14:13:34;;;;;;;3.90;3.60;;;;;;;;;;5033682;28;20456;-89
2022/04/11 14:16:02;;;;;;;5.53;3.50;;;18.90;87.50;;;;;;5033588;28;20510;-90
2022/04/11 14:18:29;;;;;;;4.23;3.30;;;;;;;;;;5028947;28;20456;-89
2022/04/11 14:20:57;;;;;;;4.10;3.40;;;19.90;54.40;;;;;;5033756;28;20498;-89